createdAt,value
2022-07-26T00:04:13.659Z,52.55
2022-07-26T00:09:17.802Z,52.60
2022-07-26T00:14:20.615Z,52.65
2022-07-26T00:19:23.405Z,52.58
2022-07-26T00:24:32.272Z,53.03
2022-07-26T00:29:37.968Z,52.73
2022-07-26T00:34:40.983Z,52.81
2022-07-26T00:39:45.234Z,52.81
2022-07-26T00:44:48.090Z,53.25
2022-07-26T00:49:50.939Z,53.46
2022-07-26T00:54:56.201Z,53.35
2022-07-26T01:00:01.120Z,53.83
2022-07-26T01:05:03.961Z,53.82
2022-07-26T01:10:12.119Z,53.98
2022-07-26T01:15:15.879Z,53.60
2022-07-26T01:20:18.887Z,54.07
2022-07-26T01:25:31.265Z,53.91
2022-07-26T01:30:34.066Z,53.82
2022-07-26T01:35:36.887Z,53.81
2022-07-26T01:40:41.020Z,54.11
2022-07-26T01:45:43.913Z,53.67
2022-07-26T01:50:46.740Z,53.86
2022-07-26T01:55:50.864Z,53.88
2022-07-26T02:00:53.685Z,54.11
2022-07-26T02:05:56.485Z,54.08
2022-07-26T02:11:04.137Z,53.96
2022-07-26T02:16:08.755Z,54.14
2022-07-26T02:21:11.650Z,54.05
2022-07-26T02:26:15.795Z,54.21
2022-07-26T02:31:18.818Z,54.00
2022-07-26T02:36:21.763Z,53.82
2022-07-26T02:41:27.031Z,54.07
2022-07-26T02:46:29.937Z,53.79
2022-07-26T02:51:32.924Z,53.71
2022-07-26T02:56:37.041Z,53.73
2022-07-26T03:01:40.121Z,53.86
2022-07-26T03:06:42.951Z,53.92
2022-07-26T03:11:47.158Z,53.86
2022-07-26T03:16:50.106Z,53.60
2022-07-26T03:21:52.857Z,53.66
2022-07-26T03:26:57.109Z,53.27
2022-07-26T03:31:59.927Z,53.21
2022-07-26T03:37:02.682Z,52.86
2022-07-26T03:42:07.036Z,52.57
2022-07-26T03:47:09.876Z,52.34
2022-07-26T03:52:12.651Z,52.38
2022-07-26T03:57:16.743Z,52.12
2022-07-26T04:02:19.626Z,51.71
2022-07-26T04:07:22.391Z,51.15
2022-07-26T04:12:31.148Z,50.79
2022-07-26T04:17:37.961Z,50.36
2022-07-26T04:22:40.994Z,50.17
2022-07-26T04:27:45.130Z,49.93
2022-07-26T04:32:47.987Z,49.94
2022-07-26T04:37:50.818Z,49.71
2022-07-26T04:42:55.004Z,49.92
2022-07-26T04:47:57.822Z,49.80
2022-07-26T04:53:00.598Z,49.76
2022-07-26T04:58:04.911Z,49.36
2022-07-26T05:03:07.928Z,49.23
2022-07-26T05:08:11.120Z,49.34
2022-07-26T05:13:15.267Z,49.16
2022-07-26T05:18:18.263Z,49.38
2022-07-26T05:23:21.148Z,49.31
2022-07-26T05:28:25.283Z,49.05
2022-07-26T05:33:28.232Z,49.15
2022-07-26T05:38:31.064Z,49.27
2022-07-26T05:43:40.647Z,49.30
2022-07-26T05:48:44.628Z,49.78
2022-07-26T05:53:47.504Z,49.60
2022-07-26T05:58:51.615Z,49.44
2022-07-26T06:03:54.392Z,49.24
2022-07-26T06:08:57.196Z,49.21
2022-07-26T06:14:01.354Z,49.07
2022-07-26T06:19:04.190Z,47.93
2022-07-26T06:24:07.775Z,48.93
2022-07-26T06:29:12.052Z,48.95
2022-07-26T06:34:14.881Z,48.88
2022-07-26T06:39:17.689Z,49.60
2022-07-26T06:44:22.744Z,49.42
2022-07-26T06:49:25.756Z,49.95
2022-07-26T06:54:28.712Z,49.70
2022-07-26T06:59:32.931Z,51.61
2022-07-26T07:04:35.932Z,51.30
2022-07-26T07:09:38.824Z,49.61
2022-07-26T07:14:43.204Z,50.31
2022-07-26T07:19:46.105Z,50.84
2022-07-26T07:24:48.921Z,50.56
2022-07-26T07:29:53.252Z,48.75
2022-07-26T07:34:56.025Z,48.39
2022-07-26T07:39:58.838Z,48.66
2022-07-26T07:45:02.940Z,48.43
2022-07-26T07:50:07.520Z,48.24
2022-07-26T07:55:36.616Z,48.26
2022-07-26T08:00:35.174Z,48.33
2022-07-26T08:05:40.451Z,47.83
2022-07-26T08:10:51.794Z,47.22
2022-07-26T08:15:56.889Z,46.69
2022-07-26T08:21:03.367Z,46.50
2022-07-26T08:26:07.294Z,47.32
2022-07-26T08:31:11.504Z,48.11
2022-07-26T08:36:14.743Z,46.87
2022-07-26T08:41:18.047Z,46.84
2022-07-26T08:46:26.016Z,46.92
2022-07-26T08:51:30.176Z,47.11
2022-07-26T08:56:33.720Z,46.99
2022-07-26T09:01:50.783Z,46.62
2022-07-26T09:06:58.071Z,46.74
2022-07-26T09:12:02.250Z,46.76
2022-07-26T09:17:07.165Z,46.45
2022-07-26T09:22:11.533Z,46.48
2022-07-26T09:27:15.181Z,46.33
2022-07-26T09:32:20.479Z,46.50
2022-07-26T09:37:44.234Z,46.11
2022-07-26T09:42:57.395Z,45.95
2022-07-26T09:48:01.688Z,45.96
2022-07-26T09:53:07.784Z,45.91
2022-07-26T09:58:10.562Z,45.55
2022-07-26T10:03:14.820Z,45.68
2022-07-26T10:08:18.637Z,45.40
2022-07-26T10:13:21.381Z,45.37
2022-07-26T10:18:45.254Z,45.41
2022-07-26T10:23:48.464Z,45.43
2022-07-26T10:28:51.214Z,45.43
2022-07-26T10:33:55.702Z,45.40
2022-07-26T10:39:07.342Z,45.58
2022-07-26T10:44:17.157Z,45.88
2022-07-26T10:49:21.395Z,45.68
2022-07-26T10:54:24.173Z,45.56
2022-07-26T10:59:54.468Z,45.25
2022-07-26T11:05:01.753Z,44.97
2022-07-26T11:10:05.325Z,44.95
2022-07-26T11:15:16.253Z,44.96
2022-07-26T11:20:29.847Z,44.72
2022-07-26T11:25:32.890Z,45.41
2022-07-26T11:30:35.658Z,44.93
2022-07-26T11:35:50.735Z,44.64
2022-07-26T11:40:53.518Z,43.37
2022-07-26T11:45:56.317Z,42.96
2022-07-26T11:51:11.446Z,42.52
2022-07-26T11:56:15.732Z,42.93
2022-07-26T12:01:19.850Z,42.04
2022-07-26T12:06:24.796Z,42.57
2022-07-26T12:11:41.701Z,42.85
2022-07-26T12:16:45.220Z,43.30
2022-07-26T12:21:50.239Z,43.34
2022-07-26T12:27:05.483Z,42.63
2022-07-26T12:32:12.433Z,41.68
2022-07-26T12:37:18.233Z,42.04
2022-07-26T12:42:33.480Z,42.10
2022-07-26T12:47:37.697Z,41.93
2022-07-26T12:52:41.923Z,41.19
2022-07-26T12:57:45.982Z,41.16
2022-07-26T13:02:51.221Z,41.17
2022-07-26T13:07:55.495Z,41.16
2022-07-26T13:12:58.279Z,37.57
2022-07-26T13:18:01.130Z,36.43
2022-07-26T13:23:05.303Z,36.31
2022-07-26T13:28:09.092Z,38.09
2022-07-26T13:33:12.163Z,38.20
2022-07-26T13:38:19.056Z,37.65
2022-07-26T13:43:21.940Z,37.67
2022-07-26T13:48:24.668Z,37.42
2022-07-26T13:53:29.963Z,38.00
2022-07-26T13:58:32.717Z,40.69
2022-07-26T14:03:35.748Z,41.84
2022-07-26T14:08:40.313Z,42.48
2022-07-26T14:13:43.233Z,42.48
2022-07-26T14:18:46.042Z,42.80
2022-07-26T14:23:50.460Z,43.48
2022-07-26T14:28:53.401Z,43.37
2022-07-26T14:33:56.239Z,43.13
2022-07-26T14:39:00.621Z,43.47
2022-07-26T14:44:03.381Z,42.69
2022-07-26T14:49:06.222Z,42.92
2022-07-26T14:54:13.744Z,43.51
2022-07-26T14:59:18.166Z,43.47
2022-07-26T15:04:21.202Z,43.32
2022-07-26T15:09:25.282Z,43.44
2022-07-26T15:14:28.024Z,43.03
2022-07-26T15:19:30.971Z,42.57
2022-07-26T15:24:39.608Z,40.99
2022-07-26T15:29:43.136Z,41.59
2022-07-26T15:34:45.947Z,41.80
2022-07-26T15:39:50.212Z,42.41
2022-07-26T15:44:54.744Z,42.43
2022-07-26T15:49:57.657Z,42.59
2022-07-26T15:55:01.787Z,42.75
2022-07-26T16:00:11.045Z,43.11
2022-07-26T16:05:15.215Z,43.28
2022-07-26T16:10:19.565Z,40.39
2022-07-26T16:15:22.353Z,39.74
2022-07-26T16:20:25.100Z,40.20
2022-07-26T16:25:29.201Z,41.06
2022-07-26T16:30:31.953Z,40.33
2022-07-26T16:35:34.865Z,40.77
2022-07-26T16:40:38.964Z,40.51
2022-07-26T16:45:41.818Z,40.22
2022-07-26T16:50:44.605Z,40.11
2022-07-26T16:55:51.816Z,39.16
2022-07-26T17:00:54.941Z,39.52
2022-07-26T17:06:00.781Z,39.77
2022-07-26T17:11:08.861Z,39.57
2022-07-26T17:16:11.776Z,38.38
2022-07-26T17:21:14.743Z,39.23
2022-07-26T17:26:19.034Z,38.92
2022-07-26T17:31:22.023Z,39.49
2022-07-26T17:36:25.790Z,39.63
2022-07-26T17:41:33.102Z,39.74
2022-07-26T17:46:36.664Z,39.97
2022-07-26T17:51:39.881Z,39.38
2022-07-26T17:56:45.493Z,40.11
2022-07-26T18:01:50.687Z,39.37
2022-07-26T18:07:00.833Z,39.98
2022-07-26T18:12:06.686Z,40.48
2022-07-26T18:17:09.643Z,39.85
2022-07-26T18:22:12.677Z,39.68
2022-07-26T18:27:16.928Z,39.18
2022-07-26T18:32:19.694Z,39.63
2022-07-26T18:37:22.442Z,39.64
2022-07-26T18:42:26.830Z,40.23
2022-07-26T18:47:29.593Z,39.84
2022-07-26T18:52:32.906Z,39.91
2022-07-26T18:57:37.257Z,39.57
2022-07-26T19:02:40.442Z,39.60
2022-07-26T19:07:43.256Z,38.88
2022-07-26T19:12:48.332Z,39.73
2022-07-26T19:17:51.327Z,38.87
2022-07-26T19:22:54.078Z,39.00
2022-07-26T19:27:58.308Z,39.29
2022-07-26T19:33:01.054Z,38.92
2022-07-26T19:38:03.858Z,39.03
2022-07-26T19:43:07.953Z,38.88
2022-07-26T19:48:10.877Z,38.53
2022-07-26T19:53:13.785Z,38.54
2022-07-26T19:58:18.456Z,38.58
2022-07-26T20:03:21.362Z,38.49
2022-07-26T20:08:24.248Z,38.84
2022-07-26T20:13:28.584Z,38.62
2022-07-26T20:18:31.440Z,39.12
2022-07-26T20:23:34.241Z,39.38
2022-07-26T20:28:38.326Z,39.15
2022-07-26T20:33:41.113Z,40.03
2022-07-26T20:38:47.024Z,39.98
2022-07-26T20:43:53.702Z,40.37
2022-07-26T20:48:59.683Z,40.30
2022-07-26T20:54:03.207Z,39.70
2022-07-26T20:59:07.340Z,39.59
2022-07-26T21:04:10.097Z,39.73
2022-07-26T21:09:13.250Z,40.05
2022-07-26T21:14:17.544Z,39.94
2022-07-26T21:19:20.455Z,39.71
2022-07-26T21:24:23.236Z,39.31
2022-07-26T21:29:27.436Z,39.40
2022-07-26T21:34:30.231Z,39.75
2022-07-26T21:39:33.187Z,40.50
2022-07-26T21:44:37.307Z,40.08
2022-07-26T21:49:40.084Z,40.20
2022-07-26T21:54:42.820Z,40.36
2022-07-26T21:59:47.105Z,40.55
2022-07-26T22:04:49.894Z,40.83
2022-07-26T22:09:52.719Z,40.37
2022-07-26T22:14:56.808Z,40.17
2022-07-26T22:19:59.592Z,41.49
2022-07-26T22:25:02.366Z,41.44
2022-07-26T22:30:08.037Z,41.38
2022-07-26T22:35:10.797Z,41.31
2022-07-26T22:40:13.854Z,41.27
2022-07-26T22:45:18.164Z,41.40
2022-07-26T22:50:21.180Z,41.62
2022-07-26T22:55:23.898Z,41.60
2022-07-26T23:00:28.006Z,41.50
2022-07-26T23:05:46.089Z,41.33
2022-07-26T23:10:50.213Z,41.29
2022-07-26T23:16:00.059Z,41.29
2022-07-26T23:21:04.254Z,41.21
2022-07-26T23:26:07.182Z,41.22
2022-07-26T23:31:11.999Z,41.01
2022-07-26T23:36:14.925Z,41.20
2022-07-26T23:41:18.879Z,41.30
2022-07-26T23:46:23.050Z,40.92
2022-07-26T23:51:25.890Z,41.14
2022-07-26T23:56:28.590Z,41.12
